sensor_id;sensor_type;location;lat;lon;timestamp;P1;durP1;ratioP1;P2;durP2;ratioP2
9461;SDS011;4769;42.660;23.262;2023-07-29T00:02:15;3.85;;;3.25;;
9461;SDS011;4769;42.660;23.262;2023-07-29T00:04:41;3.42;;;3.13;;
9461;SDS011;4769;42.660;23.262;2023-07-29T00:07:09;4.35;;;3.20;;
9461;SDS011;4769;42.660;23.262;2023-07-29T00:09:37;4.95;;;3.20;;
9461;SDS011;4769;42.660;23.262;2023-07-29T00:12:03;5.35;;;2.95;;
9461;SDS011;4769;42.660;23.262;2023-07-29T00:14:29;3.40;;;3.10;;
9461;SDS011;4769;42.660;23.262;2023-07-29T00:16:55;5.80;;;3.28;;
9461;SDS011;4769;42.660;23.262;2023-07-29T00:19:21;3.28;;;2.97;;
9461;SDS011;4769;42.660;23.262;2023-07-29T00:21:46;3.50;;;3.20;;
9461;SDS011;4769;42.660;23.262;2023-07-29T00:24:15;3.83;;;3.28;;
9461;SDS011;4769;42.660;23.262;2023-07-29T00:26:40;4.45;;;3.50;;
9461;SDS011;4769;42.660;23.262;2023-07-29T00:29:06;3.83;;;2.75;;
9461;SDS011;4769;42.660;23.262;2023-07-29T00:31:32;5.90;;;3.33;;
9461;SDS011;4769;42.660;23.262;2023-07-29T00:33:57;3.70;;;3.17;;
9461;SDS011;4769;42.660;23.262;2023-07-29T00:36:23;3.70;;;3.40;;
9461;SDS011;4769;42.660;23.262;2023-07-29T00:38:50;4.65;;;3.33;;
9461;SDS011;4769;42.660;23.262;2023-07-29T00:41:18;4.90;;;3.40;;
9461;SDS011;4769;42.660;23.262;2023-07-29T00:43:46;4.30;;;3.33;;
9461;SDS011;4769;42.660;23.262;2023-07-29T00:46:12;4.60;;;3.13;;
9461;SDS011;4769;42.660;23.262;2023-07-29T00:48:37;4.40;;;3.60;;
9461;SDS011;4769;42.660;23.262;2023-07-29T00:51:03;4.90;;;3.35;;
9461;SDS011;4769;42.660;23.262;2023-07-29T00:53:29;4.10;;;3.13;;
9461;SDS011;4769;42.660;23.262;2023-07-29T00:55:55;3.10;;;2.90;;
9461;SDS011;4769;42.660;23.262;2023-07-29T00:58:23;4.10;;;3.30;;
9461;SDS011;4769;42.660;23.262;2023-07-29T01:00:49;4.07;;;2.80;;
9461;SDS011;4769;42.660;23.262;2023-07-29T01:03:15;3.67;;;3.33;;
9461;SDS011;4769;42.660;23.262;2023-07-29T01:05:44;3.55;;;3.25;;
9461;SDS011;4769;42.660;23.262;2023-07-29T01:08:21;3.72;;;3.28;;
9461;SDS011;4769;42.660;23.262;2023-07-29T01:10:54;3.60;;;3.28;;
9461;SDS011;4769;42.660;23.262;2023-07-29T01:13:31;3.95;;;3.40;;
9461;SDS011;4769;42.660;23.262;2023-07-29T01:16:04;3.40;;;3.08;;
9461;SDS011;4769;42.660;23.262;2023-07-29T01:18:35;4.07;;;2.97;;
9461;SDS011;4769;42.660;23.262;2023-07-29T01:21:04;3.50;;;3.20;;
9461;SDS011;4769;42.660;23.262;2023-07-29T01:23:35;3.83;;;3.45;;
9461;SDS011;4769;42.660;23.262;2023-07-29T01:26:02;4.03;;;3.65;;
9461;SDS011;4769;42.660;23.262;2023-07-29T01:28:28;5.28;;;3.50;;
9461;SDS011;4769;42.660;23.262;2023-07-29T01:30:57;7.75;;;3.45;;
9461;SDS011;4769;42.660;23.262;2023-07-29T01:33:26;3.85;;;3.38;;
9461;SDS011;4769;42.660;23.262;2023-07-29T01:35:57;4.35;;;3.33;;
9461;SDS011;4769;42.660;23.262;2023-07-29T01:38:29;3.72;;;3.42;;
9461;SDS011;4769;42.660;23.262;2023-07-29T01:41:00;3.75;;;3.40;;
9461;SDS011;4769;42.660;23.262;2023-07-29T01:43:27;5.70;;;3.78;;
9461;SDS011;4769;42.660;23.262;2023-07-29T01:45:53;5.80;;;3.88;;
9461;SDS011;4769;42.660;23.262;2023-07-29T01:48:19;5.28;;;3.70;;
9461;SDS011;4769;42.660;23.262;2023-07-29T01:50:44;4.95;;;3.50;;
9461;SDS011;4769;42.660;23.262;2023-07-29T01:53:10;4.72;;;3.90;;
9461;SDS011;4769;42.660;23.262;2023-07-29T01:55:36;4.10;;;3.70;;
9461;SDS011;4769;42.660;23.262;2023-07-29T01:58:04;5.28;;;4.03;;
9461;SDS011;4769;42.660;23.262;2023-07-29T02:00:30;5.63;;;3.72;;
9461;SDS011;4769;42.660;23.262;2023-07-29T02:02:56;5.57;;;3.42;;
9461;SDS011;4769;42.660;23.262;2023-07-29T02:05:22;5.00;;;3.40;;
9461;SDS011;4769;42.660;23.262;2023-07-29T02:07:50;6.35;;;3.72;;
9461;SDS011;4769;42.660;23.262;2023-07-29T02:10:15;5.18;;;3.60;;
9461;SDS011;4769;42.660;23.262;2023-07-29T02:12:41;5.60;;;3.42;;
9461;SDS011;4769;42.660;23.262;2023-07-29T02:15:10;5.28;;;3.70;;
9461;SDS011;4769;42.660;23.262;2023-07-29T02:17:35;5.72;;;4.00;;
9461;SDS011;4769;42.660;23.262;2023-07-29T02:20:01;4.20;;;3.80;;
9461;SDS011;4769;42.660;23.262;2023-07-29T02:22:27;3.75;;;3.40;;
9461;SDS011;4769;42.660;23.262;2023-07-29T02:24:53;5.15;;;3.35;;
9461;SDS011;4769;42.660;23.262;2023-07-29T02:27:19;4.10;;;3.70;;
9461;SDS011;4769;42.660;23.262;2023-07-29T02:29:44;4.97;;;3.70;;
9461;SDS011;4769;42.660;23.262;2023-07-29T02:32:12;3.83;;;3.42;;
9461;SDS011;4769;42.660;23.262;2023-07-29T02:34:38;6.32;;;3.72;;
9461;SDS011;4769;42.660;23.262;2023-07-29T02:37:04;4.15;;;3.78;;
9461;SDS011;4769;42.660;23.262;2023-07-29T02:39:30;6.43;;;3.85;;
9461;SDS011;4769;42.660;23.262;2023-07-29T02:41:55;3.85;;;3.53;;
9461;SDS011;4769;42.660;23.262;2023-07-29T02:44:21;4.10;;;3.70;;
9461;SDS011;4769;42.660;23.262;2023-07-29T02:46:47;5.85;;;4.45;;
9461;SDS011;4769;42.660;23.262;2023-07-29T02:49:15;4.20;;;3.80;;
9461;SDS011;4769;42.660;23.262;2023-07-29T02:51:41;4.97;;;3.90;;
9461;SDS011;4769;42.660;23.262;2023-07-29T02:54:06;4.90;;;3.92;;
9461;SDS011;4769;42.660;23.262;2023-07-29T02:56:32;4.57;;;4.18;;
9461;SDS011;4769;42.660;23.262;2023-07-29T02:58:58;5.40;;;3.92;;
9461;SDS011;4769;42.660;23.262;2023-07-29T03:01:23;4.82;;;4.03;;
9461;SDS011;4769;42.660;23.262;2023-07-29T03:03:49;7.10;;;4.35;;
9461;SDS011;4769;42.660;23.262;2023-07-29T03:06:17;5.72;;;4.13;;
9461;SDS011;4769;42.660;23.262;2023-07-29T03:08:43;6.15;;;4.35;;
9461;SDS011;4769;42.660;23.262;2023-07-29T03:11:09;4.57;;;4.18;;
9461;SDS011;4769;42.660;23.262;2023-07-29T03:13:38;4.60;;;4.07;;
9461;SDS011;4769;42.660;23.262;2023-07-29T03:16:04;4.57;;;4.18;;
9461;SDS011;4769;42.660;23.262;2023-07-29T03:18:31;7.22;;;4.35;;
9461;SDS011;4769;42.660;23.262;2023-07-29T03:20:56;4.30;;;3.90;;
9461;SDS011;4769;42.660;23.262;2023-07-29T03:23:25;4.10;;;3.80;;
9461;SDS011;4769;42.660;23.262;2023-07-29T03:25:50;4.55;;;3.90;;
9461;SDS011;4769;42.660;23.262;2023-07-29T03:28:16;5.85;;;3.92;;
9461;SDS011;4769;42.660;23.262;2023-07-29T03:30:42;8.70;;;4.28;;
9461;SDS011;4769;42.660;23.262;2023-07-29T03:33:07;9.25;;;4.22;;
9461;SDS011;4769;42.660;23.262;2023-07-29T03:35:33;5.68;;;4.15;;
9461;SDS011;4769;42.660;23.262;2023-07-29T03:37:59;5.82;;;4.18;;
9461;SDS011;4769;42.660;23.262;2023-07-29T03:40:27;6.72;;;4.35;;
9461;SDS011;4769;42.660;23.262;2023-07-29T03:42:53;7.43;;;4.00;;
9461;SDS011;4769;42.660;23.262;2023-07-29T03:45:19;7.10;;;4.20;;
9461;SDS011;4769;42.660;23.262;2023-07-29T03:47:44;12.65;;;5.07;;
9461;SDS011;4769;42.660;23.262;2023-07-29T03:50:10;6.32;;;4.60;;
9461;SDS011;4769;42.660;23.262;2023-07-29T03:52:36;9.65;;;4.50;;
9461;SDS011;4769;42.660;23.262;2023-07-29T03:55:01;5.85;;;4.65;;
9461;SDS011;4769;42.660;23.262;2023-07-29T03:57:30;9.70;;;4.15;;
9461;SDS011;4769;42.660;23.262;2023-07-29T03:59:55;10.43;;;4.40;;
9461;SDS011;4769;42.660;23.262;2023-07-29T04:02:23;7.00;;;4.05;;
9461;SDS011;4769;42.660;23.262;2023-07-29T04:04:50;5.15;;;3.83;;
9461;SDS011;4769;42.660;23.262;2023-07-29T04:07:16;5.47;;;4.00;;
9461;SDS011;4769;42.660;23.262;2023-07-29T04:09:42;6.93;;;4.13;;
9461;SDS011;4769;42.660;23.262;2023-07-29T04:12:08;8.45;;;4.70;;
9461;SDS011;4769;42.660;23.262;2023-07-29T04:14:36;5.88;;;4.30;;
9461;SDS011;4769;42.660;23.262;2023-07-29T04:17:02;9.57;;;4.30;;
9461;SDS011;4769;42.660;23.262;2023-07-29T04:19:28;7.53;;;4.53;;
9461;SDS011;4769;42.660;23.262;2023-07-29T04:21:54;6.38;;;4.35;;
9461;SDS011;4769;42.660;23.262;2023-07-29T04:24:19;6.30;;;4.65;;
9461;SDS011;4769;42.660;23.262;2023-07-29T04:26:45;8.35;;;4.93;;
9461;SDS011;4769;42.660;23.262;2023-07-29T04:29:11;4.57;;;4.13;;
9461;SDS011;4769;42.660;23.262;2023-07-29T04:31:39;5.85;;;4.40;;
9461;SDS011;4769;42.660;23.262;2023-07-29T04:34:05;6.45;;;5.10;;
9461;SDS011;4769;42.660;23.262;2023-07-29T04:36:31;6.30;;;4.47;;
9461;SDS011;4769;42.660;23.262;2023-07-29T04:38:56;6.72;;;5.30;;
9461;SDS011;4769;42.660;23.262;2023-07-29T04:41:23;8.60;;;5.10;;
9461;SDS011;4769;42.660;23.262;2023-07-29T04:43:49;8.73;;;5.18;;
9461;SDS011;4769;42.660;23.262;2023-07-29T04:46:15;8.02;;;5.05;;
9461;SDS011;4769;42.660;23.262;2023-07-29T04:48:43;7.93;;;4.45;;
9461;SDS011;4769;42.660;23.262;2023-07-29T04:51:09;8.30;;;4.47;;
9461;SDS011;4769;42.660;23.262;2023-07-29T04:53:34;8.00;;;4.88;;
9461;SDS011;4769;42.660;23.262;2023-07-29T04:56:00;7.93;;;4.95;;
9461;SDS011;4769;42.660;23.262;2023-07-29T04:58:26;11.48;;;5.25;;
9461;SDS011;4769;42.660;23.262;2023-07-29T05:00:51;8.15;;;4.97;;
9461;SDS011;4769;42.660;23.262;2023-07-29T05:03:17;9.05;;;5.13;;
9461;SDS011;4769;42.660;23.262;2023-07-29T05:05:45;8.68;;;5.13;;
9461;SDS011;4769;42.660;23.262;2023-07-29T05:08:11;9.02;;;4.78;;
9461;SDS011;4769;42.660;23.262;2023-07-29T05:10:37;7.60;;;5.00;;
9461;SDS011;4769;42.660;23.262;2023-07-29T05:13:02;6.80;;;5.43;;
9461;SDS011;4769;42.660;23.262;2023-07-29T05:15:28;11.15;;;5.50;;
9461;SDS011;4769;42.660;23.262;2023-07-29T05:17:54;6.60;;;4.95;;
9461;SDS011;4769;42.660;23.262;2023-07-29T05:20:19;6.70;;;5.18;;
9461;SDS011;4769;42.660;23.262;2023-07-29T05:22:48;10.30;;;5.15;;
9461;SDS011;4769;42.660;23.262;2023-07-29T05:25:14;6.22;;;5.57;;
9461;SDS011;4769;42.660;23.262;2023-07-29T05:27:39;7.57;;;5.07;;
9461;SDS011;4769;42.660;23.262;2023-07-29T05:30:06;10.00;;;5.25;;
9461;SDS011;4769;42.660;23.262;2023-07-29T05:32:33;5.72;;;5.10;;
9461;SDS011;4769;42.660;23.262;2023-07-29T05:34:59;5.47;;;4.93;;
9461;SDS011;4769;42.660;23.262;2023-07-29T05:37:24;6.82;;;5.20;;
9461;SDS011;4769;42.660;23.262;2023-07-29T05:39:53;8.38;;;5.43;;
9461;SDS011;4769;42.660;23.262;2023-07-29T05:42:18;5.95;;;5.05;;
9461;SDS011;4769;42.660;23.262;2023-07-29T05:44:44;10.68;;;5.35;;
9461;SDS011;4769;42.660;23.262;2023-07-29T05:47:10;6.97;;;5.13;;
9461;SDS011;4769;42.660;23.262;2023-07-29T05:49:36;7.22;;;5.32;;
9461;SDS011;4769;42.660;23.262;2023-07-29T05:52:02;8.85;;;5.57;;
9461;SDS011;4769;42.660;23.262;2023-07-29T05:54:28;6.45;;;5.38;;
9461;SDS011;4769;42.660;23.262;2023-07-29T05:57:00;9.23;;;5.03;;
9461;SDS011;4769;42.660;23.262;2023-07-29T05:59:26;11.35;;;5.20;;
9461;SDS011;4769;42.660;23.262;2023-07-29T06:01:51;6.15;;;5.00;;
9461;SDS011;4769;42.660;23.262;2023-07-29T06:04:17;6.00;;;5.03;;
9461;SDS011;4769;42.660;23.262;2023-07-29T06:06:43;6.10;;;4.65;;
9461;SDS011;4769;42.660;23.262;2023-07-29T06:09:09;5.28;;;4.78;;
9461;SDS011;4769;42.660;23.262;2023-07-29T06:11:34;4.80;;;4.40;;
9461;SDS011;4769;42.660;23.262;2023-07-29T06:14:03;7.13;;;4.65;;
9461;SDS011;4769;42.660;23.262;2023-07-29T06:16:29;4.97;;;4.40;;
9461;SDS011;4769;42.660;23.262;2023-07-29T06:18:54;8.90;;;4.53;;
9461;SDS011;4769;42.660;23.262;2023-07-29T06:21:20;7.57;;;4.90;;
9461;SDS011;4769;42.660;23.262;2023-07-29T06:23:46;7.15;;;4.60;;
9461;SDS011;4769;42.660;23.262;2023-07-29T06:26:12;5.80;;;4.70;;
9461;SDS011;4769;42.660;23.262;2023-07-29T06:28:37;8.38;;;4.50;;
9461;SDS011;4769;42.660;23.262;2023-07-29T06:31:06;5.63;;;5.00;;
9461;SDS011;4769;42.660;23.262;2023-07-29T06:33:31;5.38;;;4.43;;
9461;SDS011;4769;42.660;23.262;2023-07-29T06:35:57;7.10;;;4.18;;
9461;SDS011;4769;42.660;23.262;2023-07-29T06:38:23;7.95;;;4.30;;
9461;SDS011;4769;42.660;23.262;2023-07-29T06:40:48;5.32;;;4.25;;
9461;SDS011;4769;42.660;23.262;2023-07-29T06:43:14;6.78;;;4.63;;
9461;SDS011;4769;42.660;23.262;2023-07-29T06:45:40;7.97;;;4.80;;
9461;SDS011;4769;42.660;23.262;2023-07-29T06:48:08;5.80;;;4.18;;
9461;SDS011;4769;42.660;23.262;2023-07-29T06:50:34;9.25;;;4.97;;
9461;SDS011;4769;42.660;23.262;2023-07-29T06:52:59;8.70;;;4.50;;
9461;SDS011;4769;42.660;23.262;2023-07-29T06:55:25;6.22;;;5.22;;
9461;SDS011;4769;42.660;23.262;2023-07-29T06:57:51;7.90;;;4.90;;
9461;SDS011;4769;42.660;23.262;2023-07-29T07:00:16;5.68;;;4.57;;
9461;SDS011;4769;42.660;23.262;2023-07-29T07:02:42;6.22;;;4.45;;
9461;SDS011;4769;42.660;23.262;2023-07-29T07:05:11;7.55;;;4.45;;
9461;SDS011;4769;42.660;23.262;2023-07-29T07:07:36;5.20;;;4.45;;
9461;SDS011;4769;42.660;23.262;2023-07-29T07:10:02;4.30;;;3.85;;
9461;SDS011;4769;42.660;23.262;2023-07-29T07:12:28;8.05;;;4.32;;
9461;SDS011;4769;42.660;23.262;2023-07-29T07:14:54;5.13;;;4.50;;
9461;SDS011;4769;42.660;23.262;2023-07-29T07:17:19;10.65;;;4.90;;
9461;SDS011;4769;42.660;23.262;2023-07-29T07:19:45;5.43;;;4.72;;
9461;SDS011;4769;42.660;23.262;2023-07-29T07:22:13;6.68;;;4.40;;
9461;SDS011;4769;42.660;23.262;2023-07-29T07:24:39;7.20;;;4.55;;
9461;SDS011;4769;42.660;23.262;2023-07-29T07:27:05;6.43;;;4.13;;
9461;SDS011;4769;42.660;23.262;2023-07-29T07:29:31;7.68;;;4.60;;
9461;SDS011;4769;42.660;23.262;2023-07-29T07:31:57;6.40;;;4.10;;
9461;SDS011;4769;42.660;23.262;2023-07-29T07:34:22;6.38;;;4.57;;
9461;SDS011;4769;42.660;23.262;2023-07-29T07:36:48;6.57;;;4.90;;
9461;SDS011;4769;42.660;23.262;2023-07-29T07:39:17;4.60;;;4.20;;
9461;SDS011;4769;42.660;23.262;2023-07-29T07:41:42;5.07;;;4.50;;
9461;SDS011;4769;42.660;23.262;2023-07-29T07:44:08;5.43;;;4.25;;
9461;SDS011;4769;42.660;23.262;2023-07-29T07:46:34;6.90;;;4.18;;
9461;SDS011;4769;42.660;23.262;2023-07-29T07:49:00;6.65;;;5.03;;
9461;SDS011;4769;42.660;23.262;2023-07-29T07:51:25;7.72;;;4.75;;
9461;SDS011;4769;42.660;23.262;2023-07-29T07:53:51;5.57;;;4.07;;
9461;SDS011;4769;42.660;23.262;2023-07-29T07:56:19;4.78;;;3.97;;
9461;SDS011;4769;42.660;23.262;2023-07-29T07:58:45;5.13;;;3.95;;
9461;SDS011;4769;42.660;23.262;2023-07-29T08:01:11;8.27;;;5.00;;
9461;SDS011;4769;42.660;23.262;2023-07-29T08:03:36;5.38;;;4.50;;
9461;SDS011;4769;42.660;23.262;2023-07-29T08:06:02;5.30;;;4.05;;
9461;SDS011;4769;42.660;23.262;2023-07-29T08:08:28;5.03;;;4.30;;
9461;SDS011;4769;42.660;23.262;2023-07-29T08:10:54;5.30;;;3.95;;
9461;SDS011;4769;42.660;23.262;2023-07-29T08:13:22;4.78;;;3.92;;
9461;SDS011;4769;42.660;23.262;2023-07-29T08:15:49;4.63;;;4.00;;
9461;SDS011;4769;42.660;23.262;2023-07-29T08:18:16;6.43;;;3.97;;
9461;SDS011;4769;42.660;23.262;2023-07-29T08:20:51;9.13;;;4.72;;
9461;SDS011;4769;42.660;23.262;2023-07-29T08:23:17;9.18;;;4.63;;
9461;SDS011;4769;42.660;23.262;2023-07-29T08:25:42;4.40;;;3.90;;
9461;SDS011;4769;42.660;23.262;2023-07-29T08:28:08;6.20;;;3.97;;
9461;SDS011;4769;42.660;23.262;2023-07-29T08:30:36;6.47;;;3.60;;
9461;SDS011;4769;42.660;23.262;2023-07-29T08:33:02;5.47;;;4.00;;
9461;SDS011;4769;42.660;23.262;2023-07-29T08:35:28;6.15;;;3.83;;
9461;SDS011;4769;42.660;23.262;2023-07-29T08:37:53;4.45;;;3.65;;
9461;SDS011;4769;42.660;23.262;2023-07-29T08:40:19;8.55;;;3.55;;
9461;SDS011;4769;42.660;23.262;2023-07-29T08:42:50;5.00;;;3.60;;
9461;SDS011;4769;42.660;23.262;2023-07-29T08:45:16;3.40;;;3.10;;
9461;SDS011;4769;42.660;23.262;2023-07-29T08:47:45;3.88;;;3.25;;
9461;SDS011;4769;42.660;23.262;2023-07-29T08:50:12;5.28;;;3.33;;
9461;SDS011;4769;42.660;23.262;2023-07-29T08:52:39;6.57;;;3.70;;
9461;SDS011;4769;42.660;23.262;2023-07-29T08:55:07;5.57;;;3.50;;
9461;SDS011;4769;42.660;23.262;2023-07-29T08:57:33;5.50;;;3.50;;
9461;SDS011;4769;42.660;23.262;2023-07-29T08:59:59;4.40;;;3.30;;
9461;SDS011;4769;42.660;23.262;2023-07-29T09:02:26;3.63;;;2.97;;
9461;SDS011;4769;42.660;23.262;2023-07-29T09:04:55;4.78;;;3.13;;
9461;SDS011;4769;42.660;23.262;2023-07-29T09:07:20;5.03;;;2.75;;
9461;SDS011;4769;42.660;23.262;2023-07-29T09:09:46;3.70;;;2.70;;
9461;SDS011;4769;42.660;23.262;2023-07-29T09:12:12;4.97;;;3.78;;
9461;SDS011;4769;42.660;23.262;2023-07-29T09:14:37;3.47;;;3.05;;
9461;SDS011;4769;42.660;23.262;2023-07-29T09:17:06;4.28;;;2.83;;
9461;SDS011;4769;42.660;23.262;2023-07-29T09:19:32;3.30;;;3.00;;
9461;SDS011;4769;42.660;23.262;2023-07-29T09:22:01;3.20;;;2.95;;
9461;SDS011;4769;42.660;23.262;2023-07-29T09:24:27;5.63;;;2.97;;
9461;SDS011;4769;42.660;23.262;2023-07-29T09:26:53;4.68;;;2.78;;
9461;SDS011;4769;42.660;23.262;2023-07-29T09:29:21;3.85;;;2.78;;
9461;SDS011;4769;42.660;23.262;2023-07-29T09:31:48;7.13;;;3.17;;
9461;SDS011;4769;42.660;23.262;2023-07-29T09:34:13;5.30;;;2.90;;
9461;SDS011;4769;42.660;23.262;2023-07-29T09:36:41;4.15;;;2.70;;
9461;SDS011;4769;42.660;23.262;2023-07-29T09:39:12;7.90;;;2.42;;
9461;SDS011;4769;42.660;23.262;2023-07-29T09:41:38;5.57;;;2.80;;
9461;SDS011;4769;42.660;23.262;2023-07-29T09:44:04;3.67;;;2.80;;
9461;SDS011;4769;42.660;23.262;2023-07-29T09:46:32;5.25;;;2.70;;
9461;SDS011;4769;42.660;23.262;2023-07-29T09:48:59;4.18;;;2.70;;
9461;SDS011;4769;42.660;23.262;2023-07-29T09:51:26;4.50;;;2.83;;
9461;SDS011;4769;42.660;23.262;2023-07-29T09:53:52;3.50;;;2.42;;
9461;SDS011;4769;42.660;23.262;2023-07-29T09:56:25;3.10;;;2.20;;
9461;SDS011;4769;42.660;23.262;2023-07-29T09:58:56;2.83;;;2.08;;
9461;SDS011;4769;42.660;23.262;2023-07-29T10:01:22;3.38;;;2.25;;
9461;SDS011;4769;42.660;23.262;2023-07-29T10:03:48;2.80;;;2.50;;
9461;SDS011;4769;42.660;23.262;2023-07-29T10:06:14;4.95;;;2.40;;
9461;SDS011;4769;42.660;23.262;2023-07-29T10:08:40;7.55;;;2.50;;
9461;SDS011;4769;42.660;23.262;2023-07-29T10:11:08;4.03;;;2.30;;
9461;SDS011;4769;42.660;23.262;2023-07-29T10:13:38;3.88;;;2.47;;
9461;SDS011;4769;42.660;23.262;2023-07-29T10:16:04;3.28;;;2.47;;
9461;SDS011;4769;42.660;23.262;2023-07-29T10:18:30;3.45;;;2.30;;
9461;SDS011;4769;42.660;23.262;2023-07-29T10:20:59;2.65;;;1.75;;
9461;SDS011;4769;42.660;23.262;2023-07-29T10:23:26;2.45;;;1.85;;
9461;SDS011;4769;42.660;23.262;2023-07-29T10:25:57;4.47;;;2.22;;
9461;SDS011;4769;42.660;23.262;2023-07-29T10:28:28;2.95;;;1.98;;
9461;SDS011;4769;42.660;23.262;2023-07-29T10:30:57;3.17;;;2.00;;
9461;SDS011;4769;42.660;23.262;2023-07-29T10:33:26;3.97;;;1.98;;
9461;SDS011;4769;42.660;23.262;2023-07-29T10:36:04;4.57;;;1.98;;
9461;SDS011;4769;42.660;23.262;2023-07-29T10:38:30;1.75;;;1.65;;
9461;SDS011;4769;42.660;23.262;2023-07-29T10:40:57;3.30;;;1.80;;
9461;SDS011;4769;42.660;23.262;2023-07-29T10:43:25;2.83;;;1.75;;
9461;SDS011;4769;42.660;23.262;2023-07-29T10:46:14;3.33;;;2.05;;
9461;SDS011;4769;42.660;23.262;2023-07-29T10:48:41;2.65;;;1.80;;
9461;SDS011;4769;42.660;23.262;2023-07-29T10:51:26;3.53;;;1.63;;
9461;SDS011;4769;42.660;23.262;2023-07-29T10:53:54;1.73;;;1.63;;
9461;SDS011;4769;42.660;23.262;2023-07-29T10:56:27;3.42;;;1.80;;
9461;SDS011;4769;42.660;23.262;2023-07-29T10:58:57;2.35;;;2.00;;
9461;SDS011;4769;42.660;23.262;2023-07-29T11:01:30;2.65;;;1.80;;
9461;SDS011;4769;42.660;23.262;2023-07-29T11:09:52;3.88;;;1.90;;
9461;SDS011;4769;42.660;23.262;2023-07-29T11:15:04;2.78;;;1.90;;
9461;SDS011;4769;42.660;23.262;2023-07-29T11:17:41;1.77;;;1.60;;
9461;SDS011;4769;42.660;23.262;2023-07-29T11:20:08;2.08;;;1.70;;
9461;SDS011;4769;42.660;23.262;2023-07-29T11:22:35;4.38;;;1.80;;
9461;SDS011;4769;42.660;23.262;2023-07-29T11:25:02;2.88;;;1.65;;
9461;SDS011;4769;42.660;23.262;2023-07-29T11:27:28;2.33;;;1.58;;
9461;SDS011;4769;42.660;23.262;2023-07-29T11:29:56;2.75;;;1.70;;
9461;SDS011;4769;42.660;23.262;2023-07-29T11:32:22;1.55;;;1.45;;
9461;SDS011;4769;42.660;23.262;2023-07-29T11:34:51;2.28;;;1.88;;
9461;SDS011;4769;42.660;23.262;2023-07-29T11:37:17;1.77;;;1.67;;
9461;SDS011;4769;42.660;23.262;2023-07-29T11:39:43;1.83;;;1.70;;
9461;SDS011;4769;42.660;23.262;2023-07-29T11:42:10;2.97;;;2.08;;
9461;SDS011;4769;42.660;23.262;2023-07-29T11:44:36;1.83;;;1.73;;
9461;SDS011;4769;42.660;23.262;2023-07-29T11:47:03;2.40;;;1.75;;
9461;SDS011;4769;42.660;23.262;2023-07-29T11:49:32;4.32;;;2.10;;
9461;SDS011;4769;42.660;23.262;2023-07-29T11:52:01;3.15;;;2.10;;
9461;SDS011;4769;42.660;23.262;2023-07-29T11:54:28;2.85;;;2.10;;
9461;SDS011;4769;42.660;23.262;2023-07-29T11:56:54;2.45;;;1.80;;
9461;SDS011;4769;42.660;23.262;2023-07-29T11:59:20;2.03;;;1.90;;
9461;SDS011;4769;42.660;23.262;2023-07-29T12:01:46;2.03;;;1.80;;
9461;SDS011;4769;42.660;23.262;2023-07-29T12:04:12;1.80;;;1.70;;
9461;SDS011;4769;42.660;23.262;2023-07-29T12:06:38;3.22;;;2.10;;
9461;SDS011;4769;42.660;23.262;2023-07-29T12:09:07;1.63;;;1.50;;
9461;SDS011;4769;42.660;23.262;2023-07-29T12:11:33;2.05;;;1.92;;
9461;SDS011;4769;42.660;23.262;2023-07-29T12:13:59;2.00;;;1.90;;
9461;SDS011;4769;42.660;23.262;2023-07-29T12:16:25;2.65;;;1.92;;
9461;SDS011;4769;42.660;23.262;2023-07-29T12:18:51;2.53;;;1.85;;
9461;SDS011;4769;42.660;23.262;2023-07-29T12:21:17;2.05;;;1.70;;
9461;SDS011;4769;42.660;23.262;2023-07-29T12:23:44;2.03;;;1.90;;
9461;SDS011;4769;42.660;23.262;2023-07-29T12:26:12;2.25;;;2.05;;
9461;SDS011;4769;42.660;23.262;2023-07-29T12:28:38;2.28;;;1.83;;
9461;SDS011;4769;42.660;23.262;2023-07-29T12:31:09;4.35;;;1.90;;
9461;SDS011;4769;42.660;23.262;2023-07-29T12:33:36;2.08;;;1.67;;
9461;SDS011;4769;42.660;23.262;2023-07-29T12:36:02;1.95;;;1.75;;
9461;SDS011;4769;42.660;23.262;2023-07-29T12:38:28;2.60;;;1.52;;
9461;SDS011;4769;42.660;23.262;2023-07-29T12:40:54;2.10;;;1.77;;
9461;SDS011;4769;42.660;23.262;2023-07-29T12:43:23;4.90;;;1.98;;
9461;SDS011;4769;42.660;23.262;2023-07-29T12:45:49;2.30;;;1.83;;
9461;SDS011;4769;42.660;23.262;2023-07-29T12:48:15;2.40;;;1.90;;
9461;SDS011;4769;42.660;23.262;2023-07-29T12:50:41;2.08;;;1.90;;
9461;SDS011;4769;42.660;23.262;2023-07-29T12:53:07;5.35;;;1.88;;
9461;SDS011;4769;42.660;23.262;2023-07-29T12:55:33;2.50;;;1.80;;
9461;SDS011;4769;42.660;23.262;2023-07-29T12:57:59;2.22;;;1.60;;
9461;SDS011;4769;42.660;23.262;2023-07-29T13:00:28;2.10;;;1.90;;
9461;SDS011;4769;42.660;23.262;2023-07-29T13:02:53;1.88;;;1.77;;
9461;SDS011;4769;42.660;23.262;2023-07-29T13:05:19;2.05;;;1.85;;
9461;SDS011;4769;42.660;23.262;2023-07-29T13:07:45;2.28;;;2.08;;
9461;SDS011;4769;42.660;23.262;2023-07-29T13:10:11;2.10;;;1.90;;
9461;SDS011;4769;42.660;23.262;2023-07-29T13:12:37;2.65;;;2.00;;
9461;SDS011;4769;42.660;23.262;2023-07-29T13:15:03;1.83;;;1.73;;
9461;SDS011;4769;42.660;23.262;2023-07-29T13:17:32;2.67;;;2.10;;
9461;SDS011;4769;42.660;23.262;2023-07-29T13:19:58;2.38;;;1.75;;
9461;SDS011;4769;42.660;23.262;2023-07-29T13:22:24;1.90;;;1.80;;
9461;SDS011;4769;42.660;23.262;2023-07-29T13:24:50;2.20;;;1.95;;
9461;SDS011;4769;42.660;23.262;2023-07-29T13:27:15;2.40;;;2.20;;
9461;SDS011;4769;42.660;23.262;2023-07-29T13:29:41;2.13;;;1.92;;
9461;SDS011;4769;42.660;23.262;2023-07-29T13:32:07;2.10;;;2.00;;
9461;SDS011;4769;42.660;23.262;2023-07-29T13:34:36;2.40;;;2.00;;
9461;SDS011;4769;42.660;23.262;2023-07-29T13:37:01;2.38;;;2.17;;
9461;SDS011;4769;42.660;23.262;2023-07-29T13:39:27;2.75;;;2.00;;
9461;SDS011;4769;42.660;23.262;2023-07-29T13:41:53;2.05;;;1.90;;
9461;SDS011;4769;42.660;23.262;2023-07-29T13:44:19;3.17;;;2.33;;
9461;SDS011;4769;42.660;23.262;2023-07-29T13:46:45;4.30;;;1.95;;
9461;SDS011;4769;42.660;23.262;2023-07-29T13:49:10;2.38;;;2.00;;
9461;SDS011;4769;42.660;23.262;2023-07-29T13:51:39;2.38;;;2.17;;
9461;SDS011;4769;42.660;23.262;2023-07-29T13:54:04;2.85;;;2.65;;
9461;SDS011;4769;42.660;23.262;2023-07-29T13:56:30;2.83;;;2.63;;
9461;SDS011;4769;42.660;23.262;2023-07-29T13:58:56;3.15;;;2.85;;
9461;SDS011;4769;42.660;23.262;2023-07-29T14:01:21;6.25;;;3.10;;
9461;SDS011;4769;42.660;23.262;2023-07-29T14:03:47;2.75;;;2.55;;
9461;SDS011;4769;42.660;23.262;2023-07-29T14:06:14;3.30;;;2.90;;
9461;SDS011;4769;42.660;23.262;2023-07-29T14:08:42;3.20;;;3.00;;
9461;SDS011;4769;42.660;23.262;2023-07-29T14:11:08;3.83;;;2.75;;
9461;SDS011;4769;42.660;23.262;2023-07-29T14:13:34;2.67;;;2.47;;
9461;SDS011;4769;42.660;23.262;2023-07-29T14:16:00;2.90;;;2.70;;
9461;SDS011;4769;42.660;23.262;2023-07-29T14:18:26;3.35;;;2.40;;
9461;SDS011;4769;42.660;23.262;2023-07-29T14:20:52;3.92;;;3.00;;
9461;SDS011;4769;42.660;23.262;2023-07-29T14:23:17;3.22;;;2.92;;
9461;SDS011;4769;42.660;23.262;2023-07-29T14:25:46;3.80;;;3.22;;
9461;SDS011;4769;42.660;23.262;2023-07-29T14:28:13;4.28;;;3.10;;
9461;SDS011;4769;42.660;23.262;2023-07-29T14:30:39;3.63;;;3.10;;
9461;SDS011;4769;42.660;23.262;2023-07-29T14:33:08;6.18;;;3.40;;
9461;SDS011;4769;42.660;23.262;2023-07-29T14:35:33;5.40;;;2.80;;
9461;SDS011;4769;42.660;23.262;2023-07-29T14:37:59;3.65;;;2.20;;
9461;SDS011;4769;42.660;23.262;2023-07-29T14:40:25;2.65;;;2.38;;
9461;SDS011;4769;42.660;23.262;2023-07-29T14:42:53;2.25;;;2.03;;
9461;SDS011;4769;42.660;23.262;2023-07-29T14:45:19;2.20;;;2.10;;
9461;SDS011;4769;42.660;23.262;2023-07-29T14:47:44;4.07;;;2.33;;
9461;SDS011;4769;42.660;23.262;2023-07-29T14:50:10;4.82;;;2.40;;
9461;SDS011;4769;42.660;23.262;2023-07-29T14:52:36;4.88;;;2.88;;
9461;SDS011;4769;42.660;23.262;2023-07-29T14:55:02;9.93;;;3.22;;
9461;SDS011;4769;42.660;23.262;2023-07-29T14:57:28;2.63;;;2.17;;
9461;SDS011;4769;42.660;23.262;2023-07-29T14:59:56;2.28;;;2.00;;
9461;SDS011;4769;42.660;23.262;2023-07-29T15:02:22;2.95;;;2.20;;
9461;SDS011;4769;42.660;23.262;2023-07-29T15:04:47;2.35;;;2.10;;
9461;SDS011;4769;42.660;23.262;2023-07-29T15:07:13;2.30;;;2.10;;